Time;durP1;ratioP1;P1;durP2;ratioP2;P2;SDS_P1;SDS_P2;PMS_P1;PMS_P2;Temp;Humidity;BMP_temperature;BMP_pressure;BME280_temperature;BME280_humidity;BME280_pressure;Samples;Min_cycle;Max_cycle;Signal;HPM_P1;HPM_P2
2022/04/17 00:02:01;;;;;;;0.00;0.00;;;;;;;15.15;54.58;101789.72;7355380;19;20732;-63
2022/04/17 00:04:27;;;;;;;0.00;0.00;;;;;;;15.03;54.43;101758.47;7352398;19;20825;-63
2022/04/17 00:06:52;;;;;;;0.00;0.00;;;;;;;15.13;54.86;101775.75;7351413;19;20060;-63
2022/04/17 00:09:18;;;;;;;0.00;0.00;;;;;;;15.06;54.87;101758.41;7349716;19;20106;-63
2022/04/17 00:11:44;;;;;;;0.00;0.00;;;;;;;15.10;55.75;101762.66;7356059;19;20046;-62
2022/04/17 00:14:12;;;;;;;0.00;0.00;;;;;;;15.17;55.32;101768.66;7360607;19;20006;-62
2022/04/17 00:16:40;;;;;;;0.10;0.10;;;;;;;15.19;55.07;101772.97;7351434;19;20468;-63
2022/04/17 00:19:09;;;;;;;0.00;0.00;;;;;;;15.21;55.03;101770.34;7359803;19;20130;-62
2022/04/17 00:21:35;;;;;;;0.00;0.00;;;;;;;15.23;55.16;101769.38;7360565;19;20014;-63
2022/04/17 00:24:00;;;;;;;0.00;0.00;;;;;;;15.23;55.18;101757.97;7348226;19;20017;-62
2022/04/17 00:26:26;;;;;;;0.05;0.05;;;;;;;15.21;55.55;101760.66;7358282;19;20007;-63
2022/04/17 00:28:51;;;;;;;0.00;0.00;;;;;;;15.22;54.69;101761.53;7368429;19;20568;-63
2022/04/17 00:31:17;;;;;;;0.00;0.00;;;;;;;15.20;54.70;101764.19;7360141;19;20011;-60
2022/04/17 00:33:42;;;;;;;0.00;0.00;;;;;;;15.21;54.75;101759.81;7359351;19;20018;-62
2022/04/17 00:36:07;;;;;;;0.00;0.00;;;;;;;15.13;54.95;101738.94;7353188;19;20014;-62
2022/04/17 00:38:33;;;;;;;0.03;0.03;;;;;;;15.17;55.29;101753.75;7361485;19;20106;-63
2022/04/17 00:40:58;;;;;;;0.00;0.00;;;;;;;15.15;55.57;101752.03;7362669;19;20017;-63
2022/04/17 00:43:25;;;;;;;0.00;0.00;;;;;;;15.13;55.80;101741.56;7362657;19;20460;-63
2022/04/17 00:45:54;;;;;;;0.00;0.00;;;;;;;15.13;55.82;101745.97;7354625;19;20376;-64
2022/04/17 00:48:19;;;;;;;0.00;0.00;;;;;;;14.88;55.69;101709.75;7357381;19;20030;-61
2022/04/17 00:50:46;;;;;;;0.00;0.00;;;;;;;15.08;55.67;101743.44;7363765;19;20014;-62
2022/04/17 00:53:12;;;;;;;0.00;0.00;;;;;;;15.07;56.08;101746.97;7355166;19;20011;-63
2022/04/17 00:55:40;;;;;;;0.00;0.00;;;;;;;15.05;56.31;101746.13;7358460;19;20714;-63
2022/04/17 00:58:05;;;;;;;0.00;0.00;;;;;;;15.07;55.89;101748.75;7364820;19;20010;-62
2022/04/17 01:00:33;;;;;;;0.00;0.00;;;;;;;15.05;56.26;101748.75;7354307;19;22625;-63
2022/04/17 01:02:59;;;;;;;0.08;0.08;;;;;;;15.05;56.21;101749.66;7368702;19;20014;-63
2022/04/17 01:05:24;;;;;;;0.03;0.03;;;;;;;15.05;56.44;101743.50;7365817;19;20524;-63
2022/04/17 01:07:50;;;;;;;0.00;0.00;;;;;;;15.07;56.66;101738.22;7369760;19;20002;-62
2022/04/17 01:10:16;;;;;;;0.00;0.00;;;;;;;15.03;56.26;101729.53;7356194;19;20522;-62
2022/04/17 01:12:41;;;;;;;0.00;0.00;;;;;;;15.09;56.22;101739.91;7356383;19;20014;-62
2022/04/17 01:15:07;;;;;;;0.00;0.00;;;;;;;15.11;56.59;101743.38;7362189;19;20470;-63
2022/04/17 01:17:33;;;;;;;0.05;0.05;;;;;;;15.13;56.63;101736.31;7358410;19;20126;-62
2022/04/17 01:19:58;;;;;;;0.00;0.00;;;;;;;15.14;56.69;101734.53;7359079;19;20097;-63
2022/04/17 01:22:25;;;;;;;0.00;0.00;;;;;;;15.14;56.63;101722.22;7359278;19;20014;-63
2022/04/17 01:27:35;;;;;;;0.00;0.00;;;;;;;15.14;56.46;101721.38;7349758;19;20017;-62
2022/04/17 01:30:03;;;;;;;0.00;0.00;;;;;;;15.07;56.37;101697.00;7356672;19;20030;-62
2022/04/17 01:32:29;;;;;;;0.00;0.00;;;;;;;15.20;56.04;101714.19;7361088;19;20974;-62
2022/04/17 01:34:54;;;;;;;0.00;0.00;;;;;;;15.23;56.01;101711.47;7360399;19;20029;-62
2022/04/17 01:37:20;;;;;;;0.00;0.00;;;;;;;15.23;56.35;101708.00;7361844;19;20623;-62
2022/04/17 01:39:46;;;;;;;0.00;0.00;;;;;;;15.27;56.39;101710.50;7358032;19;20018;-64
2022/04/17 01:42:12;;;;;;;0.00;0.00;;;;;;;15.19;56.34;101688.78;7355621;19;20011;-64
2022/04/17 01:44:39;;;;;;;0.10;0.10;;;;;;;15.34;56.36;101710.34;7359684;19;20006;-62
2022/04/17 01:47:05;;;;;;;0.00;0.00;;;;;;;15.37;56.25;101703.22;7360024;19;20010;-63
2022/04/17 01:49:30;;;;;;;0.10;0.10;;;;;;;15.41;55.91;101704.00;7357573;19;20910;-63
2022/04/17 01:51:57;;;;;;;0.00;0.00;;;;;;;15.46;56.17;101694.19;7360135;19;20478;-63
2022/04/17 01:54:24;;;;;;;0.00;0.00;;;;;;;15.50;56.04;101698.50;7359266;19;20050;-63
2022/04/17 01:56:49;;;;;;;0.00;0.00;;;;;;;15.52;55.72;101692.28;7353236;19;20002;-63
2022/04/17 01:59:20;;;;;;;0.10;0.10;;;;;;;15.42;55.77;101668.91;7350184;19;20552;-63
2022/04/17 02:01:46;;;;;;;0.00;0.00;;;;;;;15.52;56.23;101687.03;7357371;19;20553;-63
2022/04/17 02:04:12;;;;;;;0.03;0.03;;;;;;;15.53;56.36;101690.53;7353113;19;20954;-63
2022/04/17 02:06:42;;;;;;;0.03;0.03;;;;;;;15.53;56.22;101687.88;7354283;19;20065;-62
2022/04/17 02:09:12;;;;;;;0.00;0.00;;;;;;;15.54;55.85;101681.72;7344343;19;20018;-63
2022/04/17 02:11:38;;;;;;;0.05;0.05;;;;;;;15.51;56.80;101663.34;7345215;19;20825;-62
2022/04/17 02:14:06;;;;;;;0.10;0.10;;;;;;;15.51;56.65;101658.97;7365559;19;20009;-63
2022/04/17 02:16:31;;;;;;;0.10;0.10;;;;;;;15.50;56.25;101657.22;7356980;19;20011;-63
2022/04/17 02:18:57;;;;;;;0.00;0.00;;;;;;;15.47;56.75;101651.22;7355582;19;20018;-62
2022/04/17 02:21:22;;;;;;;0.03;0.03;;;;;;;15.49;56.57;101655.50;7354145;19;20021;-63
2022/04/17 02:23:48;;;;;;;0.00;0.00;;;;;;;15.50;56.15;101645.84;7356298;19;20007;-62
2022/04/17 02:26:16;;;;;;;0.00;0.00;;;;;;;15.52;56.72;101657.22;7352990;19;20115;-63
2022/04/17 02:28:41;;;;;;;0.00;0.00;;;;;;;15.49;56.30;101641.50;7347634;19;20011;-62
2022/04/17 02:31:09;;;;;;;0.00;0.00;;;;;;;15.54;56.20;101642.22;7349145;19;20616;-61
2022/04/17 02:33:34;;;;;;;0.00;0.00;;;;;;;15.54;56.72;101642.22;7349066;19;20026;-62
2022/04/17 02:36:00;;;;;;;0.00;0.00;;;;;;;15.53;56.63;101643.13;7349931;19;20011;-63
2022/04/17 02:38:26;;;;;;;0.03;0.03;;;;;;;15.44;56.38;101630.22;7356263;19;20006;-63
2022/04/17 02:40:55;;;;;;;0.10;0.10;;;;;;;15.51;56.59;101637.03;7345753;19;20033;-62
2022/04/17 02:43:21;;;;;;;0.03;0.03;;;;;;;15.36;56.83;101616.41;7343300;19;20018;-63
2022/04/17 02:45:47;;;;;;;0.10;0.10;;;;;;;15.48;56.63;101629.25;7328880;19;20846;-63
2022/04/17 02:48:12;;;;;;;0.10;0.10;;;;;;;15.34;56.82;101612.97;7347663;19;20021;-63
2022/04/17 02:50:38;;;;;;;0.10;0.10;;;;;;;15.46;57.18;101633.66;7353126;19;20031;-63
2022/04/17 02:53:04;;;;;;;0.10;0.10;;;;;;;15.35;57.11;101604.16;7354225;19;20030;-63
2022/04/17 02:55:30;;;;;;;0.10;0.10;;;;;;;15.46;57.32;101625.75;7352863;19;19999;-63
2022/04/17 02:57:56;;;;;;;0.00;0.00;;;;;;;15.46;57.20;101628.41;7356125;19;20014;-63
2022/04/17 03:00:23;;;;;;;0.00;0.00;;;;;;;15.46;57.35;101628.41;7348783;19;20043;-62
2022/04/17 03:05:37;;;;;;;0.00;0.00;;;;;;;15.45;57.49;101624.91;7343935;19;20013;-62
2022/04/17 03:08:09;;;;;;;0.00;0.00;;;;;;;15.48;56.93;101616.94;7355578;19;20467;-62
2022/04/17 03:10:40;;;;;;;0.00;0.00;;;;;;;15.46;57.58;101618.75;7357734;19;20093;-63
2022/04/17 03:13:06;;;;;;;0.10;0.10;;;;;;;15.39;58.05;101601.41;7355723;19;20068;-62
2022/04/17 03:15:32;;;;;;;0.00;0.00;;;;;;;15.42;58.24;101611.00;7357427;19;20572;-62
2022/04/17 03:17:59;;;;;;;0.10;0.10;;;;;;;15.34;58.01;101602.44;7348097;19;20014;-62
2022/04/17 03:20:28;;;;;;;0.00;0.00;;;;;;;15.34;58.10;101607.69;7358200;19;20018;-61
2022/04/17 03:22:53;;;;;;;0.00;0.00;;;;;;;15.30;58.21;101605.13;7351852;19;20017;-63
2022/04/17 03:25:19;;;;;;;0.08;0.08;;;;;;;15.20;58.51;101590.50;7357309;19;20011;-62
2022/04/17 03:27:46;;;;;;;0.10;0.10;;;;;;;15.06;59.08;101571.63;7355245;19;20034;-63
2022/04/17 03:30:14;;;;;;;0.08;0.08;;;;;;;15.11;59.08;101595.19;7354481;19;20010;-62
2022/04/17 03:32:41;;;;;;;0.00;0.00;;;;;;;15.10;59.44;101588.19;7351082;19;20034;-63
2022/04/17 03:35:07;;;;;;;0.10;0.10;;;;;;;15.06;59.35;101587.44;7362118;19;20772;-60
2022/04/17 03:37:32;;;;;;;0.10;0.10;;;;;;;14.98;59.77;101578.88;7361678;19;20006;-63
2022/04/17 03:39:57;;;;;;;0.00;0.00;;;;;;;14.97;59.87;101571.88;7357668;19;20034;-62
2022/04/17 03:42:23;;;;;;;0.10;0.10;;;;;;;14.93;60.10;101581.63;7355614;19;20014;-63
2022/04/17 03:44:49;;;;;;;0.10;0.10;;;;;;;14.82;60.21;101548.63;7357459;19;20030;-60
2022/04/17 03:47:14;;;;;;;0.10;0.10;;;;;;;14.89;59.88;101568.59;7360318;19;20052;-62
2022/04/17 03:49:39;;;;;;;0.00;0.00;;;;;;;14.86;60.23;101556.41;7362535;19;20410;-62
2022/04/17 03:52:05;;;;;;;0.10;0.10;;;;;;;14.72;59.76;101534.84;7365559;19;20010;-62
2022/04/17 03:54:30;;;;;;;0.00;0.00;;;;;;;14.77;60.18;101549.59;7354019;19;21044;-64
2022/04/17 03:56:56;;;;;;;0.00;0.00;;;;;;;14.77;60.25;101552.22;7361455;19;20494;-62
2022/04/17 03:59:21;;;;;;;0.10;0.10;;;;;;;14.73;60.30;101547.09;7367564;19;20007;-63
2022/04/17 04:01:47;;;;;;;0.00;0.00;;;;;;;14.67;60.44;101550.75;7364359;19;20007;-62
2022/04/17 04:04:14;;;;;;;0.00;0.00;;;;;;;14.65;61.02;101549.94;7367461;19;20090;-62
2022/04/17 04:06:40;;;;;;;0.00;0.00;;;;;;;14.61;60.68;101550.06;7358397;19;20011;-61
2022/04/17 04:09:06;;;;;;;0.00;0.00;;;;;;;14.56;60.83;101546.69;7365295;19;20427;-63
2022/04/17 04:11:31;;;;;;;0.00;0.00;;;;;;;14.50;61.21;101539.81;7359615;19;20022;-62
2022/04/17 04:13:57;;;;;;;0.00;0.00;;;;;;;14.47;60.50;101546.00;7358936;19;20006;-62
2022/04/17 04:16:22;;;;;;;0.00;0.00;;;;;;;14.44;61.40;101532.03;7362507;19;20002;-62
2022/04/17 04:18:48;;;;;;;0.05;0.05;;;;;;;14.40;61.37;101543.56;7354974;19;20015;-63
2022/04/17 04:21:13;;;;;;;0.10;0.10;;;;;;;14.37;61.51;101541.00;7354891;19;20030;-62
2022/04/17 04:23:40;;;;;;;0.00;0.00;;;;;;;14.34;61.42;101535.78;7363590;19;20010;-62
2022/04/17 04:26:06;;;;;;;0.00;0.00;;;;;;;14.25;61.99;101514.13;7357052;19;20006;-61
2022/04/17 04:28:36;;;;;;;0.00;0.00;;;;;;;14.21;61.39;101512.47;7360164;19;20006;-62
2022/04/17 04:31:05;;;;;;;0.00;0.00;;;;;;;14.23;61.40;101521.16;7363003;19;20090;-63
2022/04/17 04:33:34;;;;;;;0.00;0.00;;;;;;;14.19;61.90;101514.28;7358907;19;20038;-62
2022/04/17 04:36:01;;;;;;;0.00;0.00;;;;;;;14.16;61.87;101506.47;7364582;19;20467;-63
2022/04/17 04:38:27;;;;;;;0.05;0.05;;;;;;;14.14;61.94;101505.66;7357607;19;20002;-62
2022/04/17 04:40:52;;;;;;;0.00;0.00;;;;;;;14.12;62.26;101512.69;7357372;19;20014;-62
2022/04/17 04:43:18;;;;;;;0.00;0.00;;;;;;;14.10;61.83;101508.38;7363303;19;20124;-63
2022/04/17 04:51:13;;;;;;;0.00;0.00;;;;;;;14.00;61.85;101513.00;7361059;19;20022;-63
2022/04/17 04:53:39;;;;;;;0.00;0.00;;;;;;;13.94;62.51;101508.75;7356996;19;22302;-63
2022/04/17 04:56:05;;;;;;;0.03;0.03;;;;;;;13.90;62.68;101506.25;7361920;19;20459;-63
2022/04/17 04:58:30;;;;;;;0.00;0.00;;;;;;;13.85;62.81;101503.72;7355965;19;20021;-61
2022/04/17 05:00:56;;;;;;;0.00;0.00;;;;;;;13.80;62.51;101505.59;7363856;19;20006;-63
2022/04/17 05:03:21;;;;;;;0.10;0.10;;;;;;;13.75;63.39;101497.81;7354979;19;20042;-61
2022/04/17 05:05:47;;;;;;;0.05;0.05;;;;;;;13.69;63.57;101490.09;7344681;19;20094;-63
2022/04/17 05:08:12;;;;;;;0.00;0.00;;;;;;;13.64;63.18;101484.09;7357262;19;20508;-62
2022/04/17 05:10:38;;;;;;;0.00;0.00;;;;;;;13.61;63.08;101480.66;7218899;19;2809222;-63
2022/04/17 05:13:04;;;;;;;0.10;0.10;;;;;;;13.57;63.81;101477.22;7358282;19;20026;-62
2022/04/17 05:15:30;;;;;;;0.00;0.00;;;;;;;13.54;63.77;101481.72;7364917;19;20006;-63
2022/04/17 05:17:55;;;;;;;0.05;0.05;;;;;;;13.49;63.78;101473.94;7354487;19;20341;-63
2022/04/17 05:20:21;;;;;;;0.00;0.00;;;;;;;13.51;63.25;101477.38;7355696;19;20665;-62
2022/04/17 05:22:53;;;;;;;0.00;0.00;;;;;;;13.42;63.55;101456.59;7361437;19;20014;-63
2022/04/17 05:25:19;;;;;;;0.00;0.00;;;;;;;13.47;63.22;101467.84;7355930;19;20515;-62
2022/04/17 05:27:44;;;;;;;0.00;0.00;;;;;;;13.43;63.84;101459.19;7364405;19;20007;-63
2022/04/17 05:30:10;;;;;;;0.00;0.00;;;;;;;13.40;63.42;101458.38;7353118;19;20038;-62
2022/04/17 05:32:35;;;;;;;0.00;0.00;;;;;;;13.40;63.83;101461.00;7348983;19;20074;-62
2022/04/17 05:35:01;;;;;;;0.00;0.00;;;;;;;13.37;64.01;101455.81;7364075;19;20018;-62
2022/04/17 05:37:27;;;;;;;0.00;0.00;;;;;;;13.34;63.48;101448.03;7347428;19;20431;-62
2022/04/17 05:39:53;;;;;;;0.00;0.00;;;;;;;13.17;64.33;101423.00;7364152;19;20107;-62
2022/04/17 05:42:18;;;;;;;0.00;0.00;;;;;;;13.29;64.07;101449.91;7359782;19;20082;-62
2022/04/17 05:44:45;;;;;;;0.00;0.00;;;;;;;13.26;64.49;101437.69;7362311;19;20002;-63
2022/04/17 05:47:11;;;;;;;0.00;0.00;;;;;;;13.09;64.26;101419.69;7359692;19;20022;-62
2022/04/17 05:49:36;;;;;;;0.00;0.00;;;;;;;13.24;63.98;101443.00;7358145;19;20022;-62
2022/04/17 05:52:02;;;;;;;0.00;0.00;;;;;;;13.23;64.51;101438.66;7360011;19;20006;-62
2022/04/17 05:54:28;;;;;;;0.00;0.00;;;;;;;13.15;63.97;101424.78;7350790;19;20863;-62
2022/04/17 05:56:54;;;;;;;0.00;0.00;;;;;;;13.21;64.35;101436.91;7358373;19;20026;-62
2022/04/17 05:59:19;;;;;;;0.00;0.00;;;;;;;13.19;64.89;101429.09;7362690;19;20007;-63
2022/04/17 06:01:46;;;;;;;0.00;0.00;;;;;;;13.20;63.37;101433.41;7358714;19;20014;-60
2022/04/17 06:04:11;;;;;;;0.00;0.00;;;;;;;13.18;64.58;101424.75;7360154;19;20022;-62
2022/04/17 06:06:37;;;;;;;0.00;0.00;;;;;;;13.19;64.49;101429.09;7350924;19;20010;-62
2022/04/17 06:09:02;;;;;;;0.00;0.00;;;;;;;13.20;63.30;101422.94;7354159;19;20007;-62
2022/04/17 06:11:28;;;;;;;0.00;0.00;;;;;;;13.20;64.85;101420.31;7352193;19;20015;-62
2022/04/17 06:13:54;;;;;;;0.00;0.00;;;;;;;13.22;64.25;101422.91;7355985;19;20695;-63
2022/04/17 06:16:21;;;;;;;0.00;0.00;;;;;;;13.11;64.80;101403.91;7364532;19;20367;-63
2022/04/17 06:18:46;;;;;;;0.00;0.00;;;;;;;13.20;65.71;101425.56;7359390;19;20017;-63
2022/04/17 06:21:11;;;;;;;0.00;0.00;;;;;;;13.12;65.32;101401.25;7362035;19;20002;-63
2022/04/17 06:23:37;;;;;;;0.00;0.00;;;;;;;13.14;65.43;101402.09;7360442;19;20184;-61
2022/04/17 06:26:02;;;;;;;0.00;0.00;;;;;;;13.23;65.19;101404.56;7361827;19;20378;-62
2022/04/17 06:28:28;;;;;;;0.00;0.00;;;;;;;13.23;65.61;101398.44;7344146;19;20025;-62
2022/04/17 06:30:54;;;;;;;0.03;0.03;;;;;;;13.25;65.76;101404.50;7360126;19;20002;-61
2022/04/17 06:33:19;;;;;;;0.00;0.00;;;;;;;13.16;65.00;101381.94;7353986;19;20018;-62
2022/04/17 06:35:45;;;;;;;0.00;0.00;;;;;;;13.28;65.72;101390.44;7360290;19;20014;-63
2022/04/17 06:38:10;;;;;;;0.00;0.00;;;;;;;13.19;65.91;101376.63;7358608;19;20021;-63
2022/04/17 06:40:36;;;;;;;0.00;0.00;;;;;;;13.31;65.08;101390.38;7352512;19;20006;-63
2022/04/17 06:43:09;;;;;;;0.00;0.00;;;;;;;13.34;65.04;101379.84;7353605;19;20806;-63
2022/04/17 06:45:39;;;;;;;0.00;0.00;;;;;;;13.37;65.49;101377.13;7355640;19;20006;-63
2022/04/17 06:48:11;;;;;;;0.00;0.00;;;;;;;13.38;65.00;101374.47;7351606;19;20470;-62
2022/04/17 06:50:36;;;;;;;0.00;0.00;;;;;;;13.35;65.98;101369.28;7355179;19;20003;-62
2022/04/17 06:53:01;;;;;;;0.00;0.00;;;;;;;13.27;64.79;101357.25;7356221;19;20025;-63
2022/04/17 06:55:27;;;;;;;0.10;0.10;;;;;;;13.38;65.56;101373.59;7358710;19;20103;-63
2022/04/17 06:57:52;;;;;;;0.08;0.08;;;;;;;13.37;66.08;101374.50;7355025;19;20017;-62
2022/04/17 07:00:21;;;;;;;0.10;0.10;;;;;;;13.38;65.54;101363.09;7353878;19;20736;-62
2022/04/17 07:02:47;;;;;;;0.00;0.00;;;;;;;13.38;65.71;101361.38;7356233;19;20010;-62
2022/04/17 07:05:13;;;;;;;0.03;0.03;;;;;;;13.39;65.56;101346.50;7352924;19;20026;-62
2022/04/17 07:07:38;;;;;;;0.00;0.00;;;;;;;13.28;66.09;101332.75;7348441;19;20014;-63
2022/04/17 07:10:04;;;;;;;0.00;0.00;;;;;;;13.38;65.99;101339.50;7357088;19;20014;-62
2022/04/17 07:12:30;;;;;;;0.00;0.00;;;;;;;13.37;64.81;101319.41;7353248;19;20018;-62
2022/04/17 07:14:56;;;;;;;0.00;0.00;;;;;;;13.41;65.48;101326.31;7351432;19;20010;-62
2022/04/17 07:17:31;;;;;;;0.00;0.00;;;;;;;13.44;65.35;101323.63;7355766;19;20010;-63
2022/04/17 07:19:57;;;;;;;0.00;0.00;;;;;;;13.31;65.94;101306.44;7352779;19;20081;-62
2022/04/17 07:22:22;;;;;;;0.00;0.00;;;;;;;13.42;65.83;101312.28;7359643;19;20081;-62
2022/04/17 07:24:53;;;;;;;0.00;0.00;;;;;;;13.45;65.50;101320.09;7352866;19;20027;-62
2022/04/17 07:27:20;;;;;;;0.00;0.00;;;;;;;13.44;66.52;101318.38;7357388;19;20007;-62
2022/04/17 07:29:46;;;;;;;0.00;0.00;;;;;;;13.42;65.59;101310.53;7354751;19;20589;-61
2022/04/17 07:32:11;;;;;;;0.00;0.00;;;;;;;13.28;66.05;101282.91;7349401;19;20019;-62
2022/04/17 07:34:36;;;;;;;0.00;0.00;;;;;;;13.44;65.89;101313.13;7355371;19;20054;-60
2022/04/17 07:37:02;;;;;;;0.00;0.00;;;;;;;13.37;65.65;101295.78;7357925;19;20806;-62
2022/04/17 07:39:27;;;;;;;0.00;0.00;;;;;;;13.43;66.05;101293.00;7347444;19;20065;-63
2022/04/17 07:41:53;;;;;;;0.00;0.00;;;;;;;13.41;66.18;101284.34;7354165;19;20023;-62
2022/04/17 07:44:18;;;;;;;0.00;0.00;;;;;;;13.45;66.23;101288.63;7355868;19;20014;-62
2022/04/17 07:46:44;;;;;;;0.00;0.00;;;;;;;13.46;66.38;101287.72;7355279;19;20420;-62
2022/04/17 07:49:09;;;;;;;0.00;0.00;;;;;;;13.48;66.36;101288.50;7354539;19;20021;-62
2022/04/17 07:51:35;;;;;;;0.10;0.10;;;;;;;13.53;65.94;101285.78;7357675;19;20565;-63
2022/04/17 07:54:02;;;;;;;0.10;0.10;;;;;;;13.56;66.23;101275.22;7342320;19;20457;-62
2022/04/17 07:56:27;;;;;;;0.10;0.10;;;;;;;13.59;66.21;101270.75;7354081;19;20018;-63
2022/04/17 07:58:53;;;;;;;0.00;0.00;;;;;;;13.54;66.10;101258.66;7351064;19;20007;-63
2022/04/17 08:01:18;;;;;;;0.00;0.00;;;;;;;13.64;66.29;101268.03;7351033;19;20010;-62
2022/04/17 08:06:10;;;;;;;0.00;0.00;;;;;;;13.69;66.07;101264.38;7356509;19;20013;-60
2022/04/17 08:08:39;;;;;;;0.00;0.00;;;;;;;13.74;65.99;101265.09;7352416;19;20015;-62
2022/04/17 08:11:06;;;;;;;0.03;0.03;;;;;;;13.70;65.94;101252.97;7350307;19;20018;-63
2022/04/17 08:13:32;;;;;;;0.00;0.00;;;;;;;13.75;65.56;101266.81;7345846;19;20022;-63
2022/04/17 08:15:58;;;;;;;0.00;0.00;;;;;;;13.79;65.61;101253.59;7354988;19;20066;-62
2022/04/17 08:18:23;;;;;;;0.00;0.00;;;;;;;13.72;65.59;101256.38;7347536;19;20046;-62
2022/04/17 08:20:49;;;;;;;0.10;0.10;;;;;;;13.80;65.77;101252.72;7353430;19;20006;-63
2022/04/17 08:23:14;;;;;;;0.00;0.00;;;;;;;13.79;66.09;101248.34;7354932;19;20038;-63
2022/04/17 08:25:40;;;;;;;0.10;0.10;;;;;;;13.83;65.80;101247.38;7352671;19;20019;-63
2022/04/17 08:28:06;;;;;;;0.03;0.03;;;;;;;13.82;65.94;101246.50;7353496;19;20006;-62
2022/04/17 08:30:33;;;;;;;0.00;0.00;;;;;;;13.85;65.73;101246.44;7352773;19;20017;-63
2022/04/17 08:33:00;;;;;;;0.00;0.00;;;;;;;13.77;64.95;101223.00;7357982;19;20642;-62
2022/04/17 08:35:26;;;;;;;0.00;0.00;;;;;;;13.80;65.55;101222.06;7359875;19;20011;-62
2022/04/17 08:37:52;;;;;;;0.00;0.00;;;;;;;13.93;65.61;101227.81;7361495;19;20014;-63
2022/04/17 08:40:18;;;;;;;0.00;0.00;;;;;;;13.96;65.78;101233.88;7360142;19;20011;-63
2022/04/17 08:42:46;;;;;;;0.00;0.00;;;;;;;14.00;65.49;101224.16;7351746;19;20006;-63
2022/04/17 08:45:13;;;;;;;0.00;0.00;;;;;;;14.05;65.65;101224.88;7355102;19;20078;-59
2022/04/17 08:47:40;;;;;;;0.00;0.00;;;;;;;14.06;65.62;101218.72;7345406;19;20010;-62
2022/04/17 08:50:10;;;;;;;0.00;0.00;;;;;;;14.17;65.30;101232.38;7361305;19;20018;-60
2022/04/17 08:52:37;;;;;;;0.00;0.00;;;;;;;14.17;65.64;101221.88;7361989;19;20445;-63
2022/04/17 08:55:03;;;;;;;0.00;0.00;;;;;;;14.23;64.91;101226.94;7358414;19;20012;-63
2022/04/17 08:57:29;;;;;;;0.00;0.00;;;;;;;14.22;64.95;101204.22;7349213;19;20018;-63
2022/04/17 08:59:54;;;;;;;0.10;0.10;;;;;;;14.33;65.12;101216.16;7359711;19;21037;-63
2022/04/17 09:02:20;;;;;;;0.00;0.00;;;;;;;14.37;64.92;101210.78;7358799;19;20029;-60
2022/04/17 09:04:46;;;;;;;0.00;0.00;;;;;;;14.41;65.06;101208.94;7354981;19;20857;-62
2022/04/17 09:07:13;;;;;;;0.00;0.00;;;;;;;14.45;64.74;101206.16;7355994;19;20006;-63
2022/04/17 09:09:39;;;;;;;0.00;0.00;;;;;;;14.52;64.67;101207.72;7359068;19;20007;-62
2022/04/17 09:12:04;;;;;;;0.00;0.00;;;;;;;14.58;64.42;101198.78;7356387;19;20786;-63
2022/04/17 09:14:30;;;;;;;0.10;0.10;;;;;;;14.63;63.85;101199.50;7350143;19;20017;-62
2022/04/17 09:16:55;;;;;;;0.10;0.10;;;;;;;14.59;63.87;101189.97;7336976;19;20018;-62
2022/04/17 09:19:25;;;;;;;0.00;0.00;;;;;;;14.71;63.56;101186.97;7357141;19;20015;-63
2022/04/17 09:21:55;;;;;;;0.00;0.00;;;;;;;14.76;63.65;101187.69;7353642;19;20972;-63
2022/04/17 09:24:24;;;;;;;0.10;0.10;;;;;;;14.79;63.83;101187.56;7354742;19;20494;-62
2022/04/17 09:26:58;;;;;;;0.00;0.00;;;;;;;14.86;63.14;101190.03;7353323;19;20021;-62
2022/04/17 09:29:25;;;;;;;0.10;0.10;;;;;;;14.88;63.60;101185.56;7353081;19;20018;-62
2022/04/17 09:31:58;;;;;;;0.10;0.10;;;;;;;14.94;63.13;101172.22;7352297;19;20027;-62
2022/04/17 09:34:24;;;;;;;0.10;0.10;;;;;;;14.92;63.36;101171.41;7346320;19;20764;-61
2022/04/17 09:36:59;;;;;;;0.00;0.00;;;;;;;14.95;63.14;101164.28;7358122;19;20029;-62
2022/04/17 09:39:35;;;;;;;0.08;0.08;;;;;;;15.05;63.01;101172.69;7358081;19;20105;-63
2022/04/17 09:42:02;;;;;;;0.00;0.00;;;;;;;15.12;63.24;101174.22;7351350;19;20086;-63
2022/04/17 09:44:54;;;;;;;;;;;;;;;15.25;62.34;101162.34;7345828;19;20656;-63
2022/04/17 09:47:25;;;;;;;0.03;0.03;;;;;;;15.31;62.33;101145.53;7349726;19;19923;-63
2022/04/17 09:49:57;;;;;;;0.00;0.00;;;;;;;15.40;62.69;101154.84;7345148;19;20031;-61
2022/04/17 09:52:26;;;;;;;0.00;0.00;;;;;;;15.44;62.10;101145.94;7356438;19;20118;-63
2022/04/17 09:54:52;;;;;;;0.00;0.00;;;;;;;15.50;62.11;101145.72;7346791;19;20034;-62
2022/04/17 09:57:38;;;;;;;0.00;0.00;;;;;;;15.53;62.01;101135.09;7358567;19;20018;-63
2022/04/17 10:00:10;;;;;;;0.03;0.03;;;;;;;15.57;62.34;101124.38;7354797;19;20479;-62
2022/04/17 10:02:40;;;;;;;0.00;0.00;;;;;;;15.73;62.25;101126.50;7350333;19;20007;-63
2022/04/17 10:05:07;;;;;;;0.03;0.03;;;;;;;15.76;61.94;101114.06;7358657;19;20019;-62
2022/04/17 10:07:35;;;;;;;0.10;0.10;;;;;;;15.91;61.71;101117.00;7353704;19;20015;-63
2022/04/17 10:10:00;;;;;;;0.00;0.00;;;;;;;16.01;61.27;101121.00;7359584;19;20094;-62
2022/04/17 10:12:26;;;;;;;0.00;0.00;;;;;;;16.12;61.34;101108.31;7359153;19;20110;-63
2022/04/17 10:14:52;;;;;;;0.10;0.10;;;;;;;16.16;60.90;101098.50;7355969;19;20351;-63
2022/04/17 10:17:23;;;;;;;0.00;0.00;;;;;;;16.42;60.49;101111.47;7355873;19;20015;-63
2022/04/17 10:19:49;;;;;;;0.00;0.00;;;;;;;16.52;60.43;101106.69;7357464;19;20053;-61
2022/04/17 10:22:18;;;;;;;0.00;0.00;;;;;;;16.50;60.06;101076.91;7361433;19;20022;-62
2022/04/17 10:24:52;;;;;;;0.08;0.08;;;;;;;16.71;59.74;101090.97;7349602;19;20029;-62
2022/04/17 10:27:22;;;;;;;0.00;0.00;;;;;;;16.80;59.16;101080.94;7360340;19;20006;-62
2022/04/17 10:30:00;;;;;;;0.00;0.00;;;;;;;16.89;58.66;101073.56;7351234;19;20050;-63
2022/04/17 10:32:51;;;;;;;0.00;0.00;;;;;;;17.04;58.45;101088.72;7364121;19;20809;-63
2022/04/17 10:35:39;;;;;;;0.00;0.00;;;;;;;17.09;57.95;101092.03;7249363;19;2005688;-63
2022/04/17 10:38:23;;;;;;;0.00;0.00;;;;;;;17.14;58.23;101084.75;7359743;19;20018;-63
2022/04/17 10:40:53;;;;;;;0.10;0.10;;;;;;;17.09;58.04;101076.19;7362738;19;20014;-63
2022/04/17 10:43:19;;;;;;;0.10;0.10;;;;;;;17.07;57.34;101083.28;7360785;19;20010;-63
2022/04/17 10:46:07;;;;;;;0.10;0.10;;;;;;;17.09;57.89;101084.09;7355778;19;20010;-63
2022/04/17 10:48:47;;;;;;;0.00;0.00;;;;;;;17.02;57.22;101085.28;7249772;19;2004526;-64
2022/04/17 10:51:20;;;;;;;0.10;0.10;;;;;;;16.92;57.21;101073.41;7356335;19;20014;-63
2022/04/17 10:54:03;;;;;;;0.00;0.00;;;;;;;16.83;57.13;101075.53;7356953;19;20014;-63
2022/04/17 10:56:35;;;;;;;0.00;0.00;;;;;;;16.70;57.99;101079.56;7357293;19;20451;-64
2022/04/17 10:59:05;;;;;;;0.10;0.10;;;;;;;16.60;57.74;101076.47;7352922;19;20021;-63
2022/04/17 11:01:43;;;;;;;0.00;0.00;;;;;;;16.59;57.32;101079.16;7362080;19;20018;-63
2022/04/17 11:04:42;;;;;;;0.10;0.10;;;;;;;16.50;57.70;101076.91;7356420;19;20014;-63
2022/04/17 11:07:07;;;;;;;0.10;0.10;;;;;;;16.35;57.49;101071.34;7253953;19;2004040;-62
2022/04/17 11:09:36;;;;;;;0.00;0.00;;;;;;;16.18;58.07;101065.91;7353913;19;20409;-62
2022/04/17 11:12:10;;;;;;;0.00;0.00;;;;;;;16.15;58.21;101059.88;7359245;19;20482;-63
2022/04/17 11:14:35;;;;;;;0.00;0.00;;;;;;;16.01;58.23;101063.06;7352893;19;20025;-62
2022/04/17 11:17:08;;;;;;;0.00;0.00;;;;;;;15.79;58.37;101037.56;7359328;19;20630;-63
2022/04/17 11:19:40;;;;;;;0.08;0.08;;;;;;;15.85;58.29;101060.19;7353336;19;20030;-62
2022/04/17 11:22:08;;;;;;;0.10;0.10;;;;;;;15.73;59.11;101048.34;7358731;19;20007;-62
2022/04/17 11:24:52;;;;;;;;;;;;;;;15.71;58.01;101051.94;7356126;19;20470;-63
2022/04/17 11:27:47;;;;;;;0.00;0.00;;;;;;;15.61;58.66;101038.25;7351467;19;19923;-62
2022/04/17 11:30:18;;;;;;;0.00;0.00;;;;;;;15.52;59.22;101034.22;7241158;19;2004494;-63
2022/04/17 11:32:43;;;;;;;0.08;0.08;;;;;;;15.44;59.94;101030.13;7350634;19;20899;-63
2022/04/17 11:35:11;;;;;;;0.00;0.00;;;;;;;15.38;59.50;101031.22;7357831;19;20018;-62
2022/04/17 11:37:37;;;;;;;0.00;0.00;;;;;;;15.35;60.06;101027.84;7360215;19;20003;-63
2022/04/17 11:40:14;;;;;;;0.00;0.00;;;;;;;15.34;59.40;101023.50;7347786;19;20022;-62